Time;durP1;ratioP1;P1;durP2;ratioP2;P2;SDS_P1;SDS_P2;PMS_P1;PMS_P2;Temp;Humidity;BMP_temperature;BMP_pressure;BME280_temperature;BME280_humidity;BME280_pressure;Samples;Min_cycle;Max_cycle;Signal;HPM_P1;HPM_P2
2022/03/19 00:01:54;;;;;;;4.60;2.40;;;;;;;;;;5073068;28;20320;-14
2022/03/19 00:04:21;;;;;;;5.78;2.60;;;;;;;;;;5073278;28;20226;-14
2022/03/19 00:06:48;;;;;;;6.53;2.50;;;;;;;;;;5073672;28;20233;-14
2022/03/19 00:09:15;;;;;;;7.15;3.00;;;;;;;;;;5059251;28;20230;-14
2022/03/19 00:11:43;;;;;;;6.45;2.70;;;;;;;;;;5055405;28;21051;-14
2022/03/19 00:14:12;;;;;;;8.38;3.17;;;;;;;;;;5064331;28;21014;-14
2022/03/19 00:16:39;;;;;;;12.05;3.15;;;;;;;;;;5071459;28;20327;-14
2022/03/19 00:19:08;;;;;;;9.70;2.90;;;;;;;;;;5065811;28;20673;-14
2022/03/19 00:21:35;;;;;;;14.23;3.13;;;;;;;;;;5069409;28;20233;-14
2022/03/19 00:24:04;;;;;;;14.25;3.33;;;;;;;;;;5066369;28;20233;-14
2022/03/19 00:26:33;;;;;;;13.05;3.28;;;;;;;;;;5068943;28;20233;-14
2022/03/19 00:29:00;;;;;;;17.70;2.70;;;;;;;;;;5066634;28;20260;-14
2022/03/19 00:31:28;;;;;;;13.20;2.60;;;;;;;;;;5072829;28;20225;-14
2022/03/19 00:33:56;;;;;;;14.27;2.97;;;;;;;;;;5057982;28;20284;-14
2022/03/19 00:36:23;;;;;;;8.63;2.60;;;;;;;;;;5053183;28;20313;-14
2022/03/19 00:38:50;;;;;;;14.32;3.03;;;;;;;;;;5053515;28;20222;-14
2022/03/19 00:41:17;;;;;;;10.85;2.90;;;;;;;;;;5053589;28;20959;-14
2022/03/19 00:43:44;;;;;;;9.23;2.53;;;;;;;;;;5058209;28;20234;-14
2022/03/19 00:46:12;;;;;;;7.32;2.63;;;;;;;;;;5083080;28;20359;-15
2022/03/19 00:48:39;;;;;;;9.57;2.30;;;;;;;;;;5093366;28;20256;-14
2022/03/19 00:51:06;;;;;;;8.57;3.00;;;;;;;;;;5093010;28;20241;-14
2022/03/19 00:53:33;;;;;;;9.05;2.40;;;;;;;;;;5093430;28;20664;-14
2022/03/19 00:56:00;;;;;;;13.07;2.60;;;;;;;;;;5076913;28;20237;-14
2022/03/19 00:58:27;;;;;;;6.57;2.50;;;;;;;;;;5073065;28;20228;-14
2022/03/19 01:00:55;;;;;;;8.23;2.30;;;;;;;;;;5073177;28;20320;-14
2022/03/19 01:03:22;;;;;;;5.60;2.50;;;;;;;;;;5073212;28;20221;-14
2022/03/19 01:05:49;;;;;;;7.15;2.50;;;;;;;;;;5072440;28;20596;-14
2022/03/19 01:08:16;;;;;;;7.63;2.47;;;;;;;;;;5067504;28;20226;-14
2022/03/19 01:10:43;;;;;;;5.30;2.40;;;;;;;;;;5052557;28;20234;-14
2022/03/19 01:13:10;;;;;;;5.50;2.22;;;;;;;;;;5052775;28;20214;-14
2022/03/19 01:15:38;;;;;;;8.27;2.47;;;;;;;;;;5052453;28;20222;-14
2022/03/19 01:18:05;;;;;;;8.30;2.40;;;;;;;;;;5080494;28;20230;-14
2022/03/19 01:20:33;;;;;;;5.95;2.10;;;;;;;;;;5071648;28;20229;-14
2022/03/19 01:23:00;;;;;;;8.90;2.10;;;;;;;;;;5070621;28;20237;-14
2022/03/19 01:25:27;;;;;;;6.15;1.95;;;;;;;;;;5070636;28;20248;-14
2022/03/19 01:27:54;;;;;;;7.80;2.22;;;;;;;;;;5072020;28;20701;-14
2022/03/19 01:30:22;;;;;;;5.03;2.45;;;;;;;;;;5075082;28;20783;-14
2022/03/19 01:32:49;;;;;;;8.52;2.05;;;;;;;;;;5093138;28;20939;-14
2022/03/19 01:35:16;;;;;;;10.25;2.40;;;;;;;;;;5093027;28;20232;-14
2022/03/19 01:37:43;;;;;;;7.88;2.33;;;;;;;;;;5086078;28;20249;-14
2022/03/19 01:40:10;;;;;;;9.85;2.92;;;;;;;;;;5071970;28;20225;-15
2022/03/19 01:42:37;;;;;;;11.57;2.42;;;;;;;;;;5072499;28;20237;-14
2022/03/19 01:45:04;;;;;;;6.18;2.50;;;;;;;;;;5072127;28;20222;-14
2022/03/19 01:47:31;;;;;;;7.20;2.40;;;;;;;;;;5072302;28;20218;-14
2022/03/19 01:49:58;;;;;;;7.00;2.30;;;;;;;;;;5071356;28;20237;-14
2022/03/19 01:52:28;;;;;;;5.85;2.40;;;;;;;;;;5072457;28;20320;-14
2022/03/19 01:54:55;;;;;;;6.18;2.15;;;;;;;;;;5072246;28;20230;-14
2022/03/19 01:57:22;;;;;;;6.18;2.67;;;;;;;;;;5072275;28;20356;-14
2022/03/19 01:59:49;;;;;;;6.05;2.08;;;;;;;;;;5071516;28;20700;-14
2022/03/19 02:02:16;;;;;;;4.10;2.17;;;;;;;;;;5072277;28;20253;-14
2022/03/19 02:04:44;;;;;;;8.25;2.30;;;;;;;;;;5071627;28;20312;-14
2022/03/19 02:07:12;;;;;;;8.05;2.42;;;;;;;;;;5072095;28;20324;-14
2022/03/19 02:09:39;;;;;;;6.22;2.25;;;;;;;;;;5071407;28;21021;-14
2022/03/19 02:12:06;;;;;;;7.13;2.53;;;;;;;;;;5071345;28;20234;-14
2022/03/19 02:14:33;;;;;;;5.32;2.17;;;;;;;;;;5071872;28;20229;-14
2022/03/19 02:17:00;;;;;;;9.55;2.70;;;;;;;;;;5071616;28;20227;-14
2022/03/19 02:19:26;;;;;;;7.07;2.70;;;;;;;;;;5071704;28;20221;-14
2022/03/19 02:21:53;;;;;;;6.85;2.35;;;;;;;;;;5070940;28;20245;-14
2022/03/19 02:27:06;;;;;;;8.52;2.60;;;;;;;;;;5071828;28;20213;-14
2022/03/19 02:29:33;;;;;;;5.10;2.08;;;;;;;;;;5070844;28;20232;-14
2022/03/19 02:32:00;;;;;;;6.15;2.60;;;;;;;;;;5071722;28;20228;-14
2022/03/19 02:34:27;;;;;;;7.05;2.75;;;;;;;;;;5071029;28;20324;-14
2022/03/19 02:36:54;;;;;;;6.43;2.50;;;;;;;;;;5071762;28;20231;-14
2022/03/19 02:39:32;;;;;;;5.60;2.20;;;;;;;;;;5050261;28;20229;-14
2022/03/19 02:41:59;;;;;;;5.85;2.30;;;;;;;;;;5051332;28;20222;-14
2022/03/19 02:44:26;;;;;;;5.90;2.30;;;;;;;;;;5062060;28;20238;-14
2022/03/19 02:46:53;;;;;;;5.72;2.40;;;;;;;;;;5074342;28;20218;-14
2022/03/19 02:49:21;;;;;;;5.47;2.20;;;;;;;;;;5051784;28;20967;-14
2022/03/19 02:51:48;;;;;;;8.10;2.45;;;;;;;;;;5051404;28;20233;-15
2022/03/19 02:54:15;;;;;;;6.18;2.65;;;;;;;;;;5051893;28;20218;-14
2022/03/19 02:56:42;;;;;;;6.88;2.60;;;;;;;;;;5072182;28;20202;-14
2022/03/19 02:59:09;;;;;;;7.28;2.30;;;;;;;;;;5075187;28;20233;-14
2022/03/19 03:01:37;;;;;;;6.63;2.85;;;;;;;;;;5073822;28;20229;-14
2022/03/19 03:04:04;;;;;;;7.85;2.85;;;;;;;;;;5074971;28;20754;-14
2022/03/19 03:06:31;;;;;;;6.78;2.95;;;;;;;;;;5062969;28;20706;-14
2022/03/19 03:08:58;;;;;;;7.43;2.33;;;;;;;;;;5055102;28;20265;-14
2022/03/19 03:11:25;;;;;;;8.38;2.90;;;;;;;;;;5054633;28;20237;-14
2022/03/19 03:13:52;;;;;;;10.15;2.53;;;;;;;;;;5054612;28;20230;-14
2022/03/19 03:16:19;;;;;;;8.68;2.78;;;;;;;;;;5064817;28;20222;-14
2022/03/19 03:18:46;;;;;;;5.88;2.28;;;;;;;;;;5074295;28;20738;-14
2022/03/19 03:21:13;;;;;;;7.15;2.58;;;;;;;;;;5091088;22;20277;-14
2022/03/19 03:23:40;;;;;;;4.53;2.38;;;;;;;;;;5100806;28;20236;-13
2022/03/19 03:26:07;;;;;;;5.78;2.70;;;;;;;;;;5112588;28;20236;-14
2022/03/19 03:28:34;;;;;;;6.53;2.35;;;;;;;;;;5092572;28;20240;-14
2022/03/19 03:31:01;;;;;;;7.25;2.50;;;;;;;;;;5103392;28;20994;-14
2022/03/19 03:33:28;;;;;;;7.03;2.63;;;;;;;;;;5115954;28;20686;-14
2022/03/19 03:35:55;;;;;;;7.15;2.60;;;;;;;;;;5115554;28;20228;-14
2022/03/19 03:38:22;;;;;;;7.00;2.60;;;;;;;;;;5100344;28;20629;-14
2022/03/19 03:40:49;;;;;;;4.40;2.40;;;;;;;;;;5105714;28;20229;-12
2022/03/19 03:43:16;;;;;;;5.82;2.67;;;;;;;;;;5094144;28;20236;-12
2022/03/19 03:45:43;;;;;;;7.32;2.83;;;;;;;;;;5099892;28;20224;-14
2022/03/19 03:48:10;;;;;;;6.30;2.33;;;;;;;;;;5105374;28;20734;-13
2022/03/19 03:50:37;;;;;;;9.05;2.65;;;;;;;;;;5093907;28;20232;-13
2022/03/19 03:53:04;;;;;;;6.65;2.55;;;;;;;;;;5094170;28;20233;-14
2022/03/19 03:55:31;;;;;;;6.55;2.80;;;;;;;;;;5094208;28;20223;-14
2022/03/19 03:57:58;;;;;;;7.72;3.00;;;;;;;;;;5094400;28;20232;-14
2022/03/19 04:00:27;;;;;;;5.05;2.40;;;;;;;;;;5091645;28;20230;-14
2022/03/19 04:02:54;;;;;;;6.43;2.58;;;;;;;;;;5074303;28;20225;-14
2022/03/19 04:05:21;;;;;;;6.55;3.00;;;;;;;;;;5073726;28;20218;-14
2022/03/19 04:07:48;;;;;;;6.65;2.60;;;;;;;;;;5081655;28;20225;-14
2022/03/19 04:10:15;;;;;;;8.82;2.50;;;;;;;;;;5094007;28;20229;-14
2022/03/19 04:12:42;;;;;;;7.50;2.55;;;;;;;;;;5080336;28;20234;-14
2022/03/19 04:15:09;;;;;;;7.75;3.10;;;;;;;;;;5075525;28;20225;-14
2022/03/19 04:17:36;;;;;;;7.68;2.45;;;;;;;;;;5113083;28;20235;-14
2022/03/19 04:20:03;;;;;;;6.28;2.50;;;;;;;;;;5114131;28;20231;-14
2022/03/19 04:22:30;;;;;;;6.32;2.63;;;;;;;;;;5120829;27;20244;-14
2022/03/19 04:24:57;;;;;;;9.20;2.90;;;;;;;;;;5093781;28;20251;-13
2022/03/19 04:27:24;;;;;;;5.13;2.35;;;;;;;;;;5093827;28;20225;-14
2022/03/19 04:29:51;;;;;;;5.60;2.60;;;;;;;;;;5094773;28;20229;-14
2022/03/19 04:32:18;;;;;;;6.15;2.60;;;;;;;;;;5132698;27;20227;-14
2022/03/19 04:34:45;;;;;;;6.25;2.35;;;;;;;;;;5119788;27;20235;-14
2022/03/19 04:37:12;;;;;;;7.22;2.67;;;;;;;;;;5113388;28;20228;-14
2022/03/19 04:39:40;;;;;;;5.70;2.60;;;;;;;;;;5114159;28;20227;-13
2022/03/19 04:42:06;;;;;;;6.40;2.63;;;;;;;;;;5114123;28;20239;-13
2022/03/19 04:44:33;;;;;;;6.20;2.55;;;;;;;;;;5113047;28;20221;-13
2022/03/19 04:47:01;;;;;;;7.07;2.53;;;;;;;;;;5113892;28;20234;-14
2022/03/19 04:49:28;;;;;;;4.40;2.13;;;;;;;;;;5113893;27;20227;-14
2022/03/19 04:51:55;;;;;;;6.47;2.60;;;;;;;;;;5114013;28;20362;-14
2022/03/19 04:54:22;;;;;;;6.15;2.63;;;;;;;;;;5113767;28;20220;-14
2022/03/19 04:56:49;;;;;;;6.78;2.80;;;;;;;;;;5112331;28;20230;-14
2022/03/19 04:59:16;;;;;;;8.00;2.72;;;;;;;;;;5113648;28;20224;-14
2022/03/19 05:01:43;;;;;;;6.20;2.47;;;;;;;;;;5127890;27;20243;-14
2022/03/19 05:04:10;;;;;;;7.38;3.03;;;;;;;;;;5134413;27;20226;-13
2022/03/19 05:06:37;;;;;;;5.55;2.38;;;;;;;;;;5128468;27;20234;-14
2022/03/19 05:11:50;;;;;;;8.82;2.88;;;;;;;;;;5103320;28;20240;-14
2022/03/19 05:14:17;;;;;;;5.22;2.45;;;;;;;;;;5113405;28;20227;-14
2022/03/19 05:16:44;;;;;;;6.80;2.45;;;;;;;;;;5127685;27;20238;-14
2022/03/19 05:19:11;;;;;;;7.35;2.90;;;;;;;;;;5114953;27;20224;-14
2022/03/19 05:21:38;;;;;;;6.50;2.60;;;;;;;;;;5112439;28;20251;-14
2022/03/19 05:24:05;;;;;;;6.32;2.30;;;;;;;;;;5113442;28;20975;-14
2022/03/19 05:26:32;;;;;;;6.13;2.45;;;;;;;;;;5113587;28;20956;-14
2022/03/19 05:28:59;;;;;;;6.38;2.25;;;;;;;;;;5105979;28;20229;-14
2022/03/19 05:31:39;;;;;;;7.68;3.25;;;;;;;;;;5106235;28;20234;-14
2022/03/19 05:36:51;;;;;;;5.35;2.40;;;;;;;;;;5110824;27;20216;-13
2022/03/19 05:39:18;;;;;;;4.60;2.20;;;;;;;;;;5093801;28;20217;-13
2022/03/19 05:41:45;;;;;;;6.13;2.50;;;;;;;;;;5112855;28;20236;-13
2022/03/19 05:44:12;;;;;;;5.00;2.47;;;;;;;;;;5113215;28;20224;-14
2022/03/19 05:46:39;;;;;;;5.30;2.30;;;;;;;;;;5125957;27;20627;-14
2022/03/19 05:49:06;;;;;;;7.28;2.75;;;;;;;;;;5133627;27;20265;-13
2022/03/19 05:51:34;;;;;;;6.20;2.65;;;;;;;;;;5120190;27;20244;-13
2022/03/19 05:54:01;;;;;;;6.20;2.15;;;;;;;;;;5113127;27;20219;-12
2022/03/19 05:56:28;;;;;;;3.60;1.83;;;;;;;;;;5112784;27;20235;-13
2022/03/19 05:58:55;;;;;;;4.32;2.20;;;;;;;;;;5112940;28;20982;-13
2022/03/19 06:01:26;;;;;;;4.47;2.10;;;;;;;;;;5118992;27;20234;-13
2022/03/19 06:03:53;;;;;;;7.07;2.47;;;;;;;;;;5092332;28;20949;-13
2022/03/19 06:06:20;;;;;;;4.05;2.00;;;;;;;;;;5092120;28;20296;-14
2022/03/19 06:08:47;;;;;;;4.22;1.95;;;;;;;;;;5092503;28;20947;-14
2022/03/19 06:11:14;;;;;;;4.45;1.85;;;;;;;;;;5091859;28;20240;-13
2022/03/19 06:13:41;;;;;;;5.38;2.30;;;;;;;;;;5104362;28;20224;-13
2022/03/19 06:16:08;;;;;;;3.70;1.70;;;;;;;;;;5121878;27;20215;-13
2022/03/19 06:18:35;;;;;;;2.42;1.30;;;;;;;;;;5133180;27;20234;-13
2022/03/19 06:21:02;;;;;;;3.05;1.52;;;;;;;;;;5132863;27;20234;-14
2022/03/19 06:23:29;;;;;;;8.05;2.10;;;;;;;;;;5129050;27;20230;-13
2022/03/19 06:25:56;;;;;;;6.97;2.00;;;;;;;;;;5112918;28;20238;-13
2022/03/19 06:28:23;;;;;;;3.78;1.80;;;;;;;;;;5112378;28;20638;-13
2022/03/19 06:30:50;;;;;;;5.68;1.98;;;;;;;;;;5111620;28;20718;-14
2022/03/19 06:33:18;;;;;;;5.38;1.80;;;;;;;;;;5111732;28;20212;-14
2022/03/19 06:38:36;;;;;;;3.88;1.80;;;;;;;;;;5112446;28;20212;-14
2022/03/19 06:41:03;;;;;;;3.45;1.80;;;;;;;;;;5112244;28;20232;-13
2022/03/19 06:43:30;;;;;;;3.63;1.73;;;;;;;;;;5112165;28;20204;-13
2022/03/19 06:46:00;;;;;;;5.32;1.98;;;;;;;;;;5111521;27;20224;-13
2022/03/19 06:48:27;;;;;;;5.05;1.88;;;;;;;;;;5112011;28;20224;-13
2022/03/19 06:50:54;;;;;;;3.40;1.80;;;;;;;;;;5112202;28;20236;-13
2022/03/19 06:53:21;;;;;;;5.05;1.85;;;;;;;;;;5112359;28;20706;-13
2022/03/19 06:55:48;;;;;;;4.05;1.58;;;;;;;;;;5112507;28;20223;-13
2022/03/19 06:58:15;;;;;;;3.72;1.60;;;;;;;;;;5094148;28;20228;-13
2022/03/19 07:00:42;;;;;;;6.15;1.80;;;;;;;;;;5096465;28;20243;-13
2022/03/19 07:03:09;;;;;;;2.85;1.48;;;;;;;;;;5111924;28;20224;-13
2022/03/19 07:05:36;;;;;;;6.95;1.90;;;;;;;;;;5104548;28;20228;-13
2022/03/19 07:08:07;;;;;;;3.63;1.67;;;;;;;;;;5099085;28;20235;-13
2022/03/19 07:10:34;;;;;;;7.50;1.77;;;;;;;;;;5111936;27;20228;-13
2022/03/19 07:13:03;;;;;;;4.80;1.95;;;;;;;;;;5111826;28;20273;-13
2022/03/19 07:15:30;;;;;;;6.68;2.08;;;;;;;;;;5115595;27;20719;-13
2022/03/19 07:17:57;;;;;;;5.05;1.92;;;;;;;;;;5132379;27;20255;-13
2022/03/19 07:20:24;;;;;;;4.03;1.90;;;;;;;;;;5111661;27;20235;-13
2022/03/19 07:22:51;;;;;;;6.90;2.25;;;;;;;;;;5111283;28;20287;-13
2022/03/19 07:25:18;;;;;;;7.00;2.03;;;;;;;;;;5111286;28;20228;-13
2022/03/19 07:27:46;;;;;;;3.30;1.80;;;;;;;;;;5111779;28;20691;-13
2022/03/19 07:30:13;;;;;;;3.53;1.70;;;;;;;;;;5111680;27;20266;-13
2022/03/19 07:32:40;;;;;;;5.00;2.05;;;;;;;;;;5096137;27;20240;-13
2022/03/19 07:35:07;;;;;;;4.72;1.88;;;;;;;;;;5091892;28;20228;-13
2022/03/19 07:37:34;;;;;;;6.55;1.92;;;;;;;;;;5107044;28;20228;-13
2022/03/19 07:40:01;;;;;;;6.25;1.95;;;;;;;;;;5099393;28;20229;-13
2022/03/19 07:42:28;;;;;;;3.55;1.65;;;;;;;;;;5095662;28;20232;-13
2022/03/19 07:44:54;;;;;;;5.65;1.95;;;;;;;;;;5094169;28;20229;-13
2022/03/19 07:47:21;;;;;;;4.75;2.08;;;;;;;;;;5094444;27;20233;-13
2022/03/19 07:49:49;;;;;;;5.13;1.90;;;;;;;;;;5096465;28;20237;-13
2022/03/19 07:52:16;;;;;;;5.85;2.28;;;;;;;;;;5103082;28;20232;-13
2022/03/19 07:54:43;;;;;;;5.88;2.08;;;;;;;;;;5097494;28;20258;-13
2022/03/19 07:57:11;;;;;;;3.75;1.85;;;;;;;;;;5105969;28;20228;-13
2022/03/19 07:59:38;;;;;;;4.43;1.98;;;;;;;;;;5098424;27;20666;-13
2022/03/19 08:02:05;;;;;;;5.10;2.30;;;;;;;;;;5094037;27;20229;-13
2022/03/19 08:04:32;;;;;;;6.70;2.17;;;;;;;;;;5111747;28;20228;-13
2022/03/19 08:06:59;;;;;;;5.80;1.70;;;;;;;;;;5101886;28;20232;-13
2022/03/19 08:09:27;;;;;;;4.68;1.90;;;;;;;;;;5102852;27;20236;-13
2022/03/19 08:11:54;;;;;;;6.88;1.98;;;;;;;;;;5098969;28;20232;-13
2022/03/19 08:14:21;;;;;;;10.75;1.55;;;;;;;;;;5106722;28;20243;-13
2022/03/19 08:16:48;;;;;;;4.85;2.00;;;;;;;;;;5098336;28;20229;-13
2022/03/19 08:19:15;;;;;;;4.78;1.60;;;;;;;;;;5104314;28;20260;-13
2022/03/19 08:21:45;;;;;;;6.63;2.10;;;;;;;;;;5098647;28;20954;-13
2022/03/19 08:24:12;;;;;;;6.13;1.80;;;;;;;;;;5102096;28;20228;-13
2022/03/19 08:26:39;;;;;;;4.50;1.83;;;;;;;;;;5103609;28;20236;-13
2022/03/19 08:29:06;;;;;;;7.15;1.80;;;;;;;;;;5099078;28;20237;-13
2022/03/19 08:31:33;;;;;;;7.07;2.00;;;;;;;;;;5104546;27;20237;-12
2022/03/19 08:34:00;;;;;;;9.45;2.58;;;;;;;;;;5095953;28;20232;-13
2022/03/19 08:36:27;;;;;;;11.73;2.03;;;;;;;;;;5096572;28;20314;-13
2022/03/19 08:41:40;;;;;;;7.43;2.30;;;;;;;;;;5094928;28;20224;-13
2022/03/19 08:44:07;;;;;;;9.73;2.10;;;;;;;;;;5101809;28;21427;-13
2022/03/19 08:46:34;;;;;;;11.60;3.03;;;;;;;;;;5108188;28;20228;-13
2022/03/19 08:49:01;;;;;;;10.65;2.38;;;;;;;;;;5112322;28;20236;-13
2022/03/19 08:51:40;;;;;;;13.32;3.33;;;;;;;;;;5108202;28;20240;-13
2022/03/19 08:54:07;;;;;;;16.65;2.95;;;;;;;;;;5112211;27;20232;-13
2022/03/19 08:56:34;;;;;;;11.73;2.97;;;;;;;;;;5112962;28;20279;-13
2022/03/19 08:59:01;;;;;;;7.20;2.95;;;;;;;;;;5112066;28;20232;-13
2022/03/19 09:01:28;;;;;;;10.90;3.03;;;;;;;;;;5114041;27;20231;-14
2022/03/19 09:03:55;;;;;;;8.73;2.47;;;;;;;;;;5111988;28;20235;-13
2022/03/19 09:06:22;;;;;;;9.40;2.30;;;;;;;;;;5112494;28;20224;-12
2022/03/19 09:08:49;;;;;;;9.77;2.90;;;;;;;;;;5106595;28;20236;-14
2022/03/19 09:11:18;;;;;;;22.88;2.70;;;;;;;;;;5110614;28;20366;-13
2022/03/19 09:13:45;;;;;;;16.08;3.25;;;;;;;;;;5095184;27;20482;-14
2022/03/19 09:16:12;;;;;;;24.00;2.83;;;;;;;;;;5112122;27;20231;-14
2022/03/19 09:18:39;;;;;;;15.90;3.08;;;;;;;;;;5133941;27;20216;-14
2022/03/19 09:21:06;;;;;;;8.20;2.50;;;;;;;;;;5115736;27;20224;-14
2022/03/19 09:23:33;;;;;;;13.25;2.78;;;;;;;;;;5110785;28;20428;-14
2022/03/19 09:26:00;;;;;;;11.68;2.70;;;;;;;;;;5111396;28;20402;-14
2022/03/19 09:28:27;;;;;;;14.15;2.53;;;;;;;;;;5111539;28;20239;-13
2022/03/19 09:30:54;;;;;;;11.88;3.00;;;;;;;;;;5107161;27;20225;-12
2022/03/19 09:33:21;;;;;;;8.70;2.17;;;;;;;;;;5102512;28;20240;-12
2022/03/19 09:35:48;;;;;;;10.68;2.30;;;;;;;;;;5099605;28;20219;-14
2022/03/19 09:38:15;;;;;;;9.82;2.22;;;;;;;;;;5099439;28;20228;-14
2022/03/19 09:40:42;;;;;;;6.15;1.95;;;;;;;;;;5096908;28;20229;-14
2022/03/19 09:43:09;;;;;;;8.00;2.00;;;;;;;;;;5100954;28;20235;-14
2022/03/19 09:45:38;;;;;;;6.45;1.80;;;;;;;;;;5104075;27;20232;-14
2022/03/19 09:48:05;;;;;;;10.07;2.10;;;;;;;;;;5102141;28;21068;-14
2022/03/19 09:50:34;;;;;;;13.93;2.33;;;;;;;;;;5101254;28;20235;-14
2022/03/19 09:53:01;;;;;;;6.18;2.20;;;;;;;;;;5100412;27;20523;-14
2022/03/19 09:55:28;;;;;;;6.55;2.15;;;;;;;;;;5107143;28;20251;-14
2022/03/19 09:57:55;;;;;;;4.95;1.90;;;;;;;;;;5110730;28;20722;-14
2022/03/19 10:00:22;;;;;;;6.25;2.00;;;;;;;;;;5110061;27;20228;-12
2022/03/19 10:02:49;;;;;;;7.30;2.00;;;;;;;;;;5110659;27;20235;-14
2022/03/19 10:11:07;;;;;;;7.25;1.92;;;;;;;;;;5030520;28;20222;-13
2022/03/19 10:13:34;;;;;;;6.75;2.22;;;;;;;;;;5038222;28;20250;-13
2022/03/19 10:16:02;;;;;;;7.80;2.10;;;;;;;;;;5069985;28;20398;-13
2022/03/19 10:18:29;;;;;;;5.90;1.95;;;;;;;;;;5110414;27;20228;-13
2022/03/19 10:20:55;;;;;;;6.63;2.17;;;;;;;;;;5110924;28;20212;-13
2022/03/19 10:23:22;;;;;;;9.05;2.15;;;;;;;;;;5075171;28;1024355;-13
2022/03/19 10:25:49;;;;;;;4.68;1.83;;;;;;;;;;5111246;28;20443;-13
2022/03/19 10:28:16;;;;;;;6.75;1.73;;;;;;;;;;5111937;28;20224;-13
2022/03/19 10:30:43;;;;;;;7.82;2.00;;;;;;;;;;5111992;27;20235;-14
2022/03/19 10:33:10;;;;;;;5.07;1.77;;;;;;;;;;5112136;27;20314;-13
2022/03/19 10:35:39;;;;;;;7.50;1.75;;;;;;;;;;5095297;28;20246;-14
2022/03/19 10:38:06;;;;;;;6.28;2.10;;;;;;;;;;5107591;27;20286;-13
2022/03/19 10:40:33;;;;;;;5.17;2.00;;;;;;;;;;5117107;27;20445;-13
2022/03/19 10:43:00;;;;;;;10.50;1.90;;;;;;;;;;5105986;27;20228;-13
2022/03/19 10:45:27;;;;;;;6.30;1.52;;;;;;;;;;5108260;28;20217;-14
2022/03/19 10:47:54;;;;;;;3.83;1.42;;;;;;;;;;5091336;28;20750;-13
2022/03/19 10:50:21;;;;;;;3.40;1.27;;;;;;;;;;5091373;28;20221;-13
2022/03/19 10:52:49;;;;;;;8.48;1.60;;;;;;;;;;5091213;28;20232;-14
2022/03/19 10:55:15;;;;;;;3.15;1.20;;;;;;;;;;5091668;28;20236;-13
2022/03/19 10:57:43;;;;;;;7.43;1.60;;;;;;;;;;5091063;28;21075;-13
2022/03/19 11:00:10;;;;;;;3.95;1.05;;;;;;;;;;5091788;27;20695;-13
2022/03/19 11:02:37;;;;;;;7.43;1.55;;;;;;;;;;5111908;28;20224;-14
2022/03/19 11:05:04;;;;;;;7.07;1.45;;;;;;;;;;5110704;28;20321;-14
2022/03/19 11:07:31;;;;;;;3.78;1.48;;;;;;;;;;5111225;28;20251;-14
2022/03/19 11:09:58;;;;;;;4.75;1.25;;;;;;;;;;5110569;27;20702;-13
2022/03/19 11:12:25;;;;;;;7.00;1.60;;;;;;;;;;5107777;27;20991;-14
2022/03/19 11:14:53;;;;;;;6.25;1.35;;;;;;;;;;5111534;28;20690;-14
2022/03/19 11:17:23;;;;;;;4.28;1.58;;;;;;;;;;5119738;27;20229;-14
2022/03/19 11:19:50;;;;;;;4.32;1.20;;;;;;;;;;5105387;28;20699;-14
2022/03/19 11:22:17;;;;;;;3.95;1.30;;;;;;;;;;5107101;28;20436;-14
2022/03/19 11:24:44;;;;;;;4.80;1.63;;;;;;;;;;5107054;28;20766;-14
2022/03/19 11:27:11;;;;;;;10.25;1.90;;;;;;;;;;5102447;28;20423;-14
2022/03/19 11:29:38;;;;;;;11.00;1.63;;;;;;;;;;5107518;28;20229;-14
2022/03/19 11:32:06;;;;;;;8.07;1.95;;;;;;;;;;5108263;27;20430;-14
2022/03/19 11:34:33;;;;;;;5.45;1.73;;;;;;;;;;5107655;27;20771;-14
2022/03/19 11:37:02;;;;;;;6.30;1.48;;;;;;;;;;5094595;28;20232;-14
2022/03/19 11:39:29;;;;;;;5.90;1.50;;;;;;;;;;5110973;28;20224;-14
2022/03/19 11:41:56;;;;;;;6.03;1.67;;;;;;;;;;5114507;28;20916;-14
2022/03/19 11:44:26;;;;;;;4.25;1.48;;;;;;;;;;5098250;27;20869;-14
2022/03/19 11:46:53;;;;;;;8.82;1.50;;;;;;;;;;5098585;27;20236;-14
2022/03/19 11:49:20;;;;;;;5.85;1.40;;;;;;;;;;5094684;27;21273;-14
2022/03/19 11:51:47;;;;;;;3.33;1.27;;;;;;;;;;5102612;27;21480;-14
2022/03/19 11:54:16;;;;;;;3.95;1.30;;;;;;;;;;5106733;28;20238;-14
2022/03/19 11:56:49;;;;;;;3.55;1.40;;;;;;;;;;5108614;27;20224;-13
2022/03/19 11:59:16;;;;;;;4.28;1.30;;;;;;;;;;5109650;27;21005;-14
2022/03/19 12:01:43;;;;;;;4.97;1.70;;;;;;;;;;5106261;27;20224;-14
2022/03/19 12:04:11;;;;;;;6.90;1.38;;;;;;;;;;5109590;28;20232;-14
2022/03/19 12:06:39;;;;;;;5.53;1.65;;;;;;;;;;5104718;28;20259;-14
2022/03/19 12:09:07;;;;;;;3.75;1.27;;;;;;;;;;5104643;27;20239;-14
2022/03/19 12:11:35;;;;;;;5.82;1.42;;;;;;;;;;5097266;27;20722;-14
2022/03/19 12:14:02;;;;;;;4.88;1.20;;;;;;;;;;5101983;27;20266;-14
2022/03/19 12:16:29;;;;;;;4.50;1.20;;;;;;;;;;5103800;27;20243;-14
2022/03/19 12:18:56;;;;;;;6.40;1.35;;;;;;;;;;5100448;27;20236;-14
2022/03/19 12:21:23;;;;;;;6.50;1.23;;;;;;;;;;5102545;27;20232;-14
2022/03/19 12:23:50;;;;;;;6.50;1.45;;;;;;;;;;5111642;28;20594;-13
2022/03/19 12:26:17;;;;;;;5.82;1.40;;;;;;;;;;5111875;28;21065;-13
2022/03/19 12:28:44;;;;;;;5.50;1.10;;;;;;;;;;5113834;27;20575;-13
2022/03/19 12:31:11;;;;;;;3.75;1.20;;;;;;;;;;5114049;27;20243;-13
2022/03/19 12:33:38;;;;;;;5.13;1.30;;;;;;;;;;5114543;28;20590;-13
2022/03/19 12:36:05;;;;;;;6.68;1.20;;;;;;;;;;5114616;28;20220;-13
2022/03/19 12:38:33;;;;;;;3.97;1.08;;;;;;;;;;5113816;28;20235;-13
2022/03/19 12:41:34;;;;;;;4.20;1.20;;;;;;;;;;5112152;28;20683;-13
2022/03/19 12:43:55;;;;;;;4.00;1.30;;;;;;;;;;5112417;28;20228;-13
2022/03/19 12:46:23;;;;;;;4.88;1.00;;;;;;;;;;5124060;27;20782;-13
2022/03/19 12:48:50;;;;;;;3.00;1.00;;;;;;;;;;5115738;27;20323;-13
2022/03/19 12:51:17;;;;;;;3.47;0.80;;;;;;;;;;5092968;28;20243;-13
2022/03/19 12:53:43;;;;;;;3.50;1.10;;;;;;;;;;5093003;28;20247;-13
2022/03/19 12:56:11;;;;;;;1.98;0.75;;;;;;;;;;5093129;28;20228;-13
2022/03/19 12:58:38;;;;;;;3.80;1.10;;;;;;;;;;5092809;28;20837;-13
2022/03/19 13:01:08;;;;;;;2.67;1.05;;;;;;;;;;5117141;27;20601;-13
2022/03/19 13:03:35;;;;;;;3.47;0.93;;;;;;;;;;5134351;27;20227;-13
2022/03/19 13:06:03;;;;;;;2.88;1.02;;;;;;;;;;5134584;27;20215;-13
2022/03/19 13:08:30;;;;;;;1.92;0.80;;;;;;;;;;5134437;27;20234;-13
2022/03/19 13:10:57;;;;;;;2.58;1.10;;;;;;;;;;5125517;27;20235;-13
2022/03/19 13:13:24;;;;;;;2.35;0.80;;;;;;;;;;5113338;28;20228;-13
2022/03/19 13:15:51;;;;;;;4.55;0.73;;;;;;;;;;5120175;27;20238;-13
2022/03/19 13:18:18;;;;;;;2.28;0.80;;;;;;;;;;5129414;27;20213;-13
2022/03/19 13:20:45;;;;;;;3.90;0.82;;;;;;;;;;5112153;28;20223;-13
2022/03/19 13:23:12;;;;;;;1.85;0.95;;;;;;;;;;5094874;28;20248;-13
2022/03/19 13:25:39;;;;;;;1.90;0.75;;;;;;;;;;5092981;28;20231;-13
2022/03/19 13:28:07;;;;;;;1.63;0.60;;;;;;;;;;5092945;28;20221;-13
2022/03/19 13:30:34;;;;;;;3.13;0.80;;;;;;;;;;5095860;28;20232;-13
2022/03/19 13:33:01;;;;;;;1.58;0.63;;;;;;;;;;5112436;28;20243;-13
2022/03/19 13:35:28;;;;;;;3.60;0.77;;;;;;;;;;5112625;28;20725;-13
2022/03/19 13:37:55;;;;;;;3.35;0.80;;;;;;;;;;5113329;28;20380;-13
2022/03/19 13:40:23;;;;;;;2.50;0.50;;;;;;;;;;5112764;27;20216;-13
2022/03/19 13:42:51;;;;;;;1.60;0.60;;;;;;;;;;5111900;28;20212;-13
2022/03/19 13:45:18;;;;;;;0.77;0.45;;;;;;;;;;5098367;27;20726;-13
2022/03/19 13:47:50;;;;;;;1.90;0.50;;;;;;;;;;5130829;27;20617;-13
2022/03/19 13:50:17;;;;;;;1.10;0.50;;;;;;;;;;5113061;27;20252;-13
2022/03/19 13:52:44;;;;;;;1.88;0.60;;;;;;;;;;5112727;28;20235;-12
2022/03/19 13:55:11;;;;;;;1.10;0.60;;;;;;;;;;5103725;28;21033;-13
2022/03/19 13:57:38;;;;;;;0.85;0.40;;;;;;;;;;5092311;28;20239;-13
2022/03/19 14:00:05;;;;;;;1.83;0.50;;;;;;;;;;5092038;27;20231;-13
2022/03/19 14:02:32;;;;;;;2.55;0.60;;;;;;;;;;5133181;27;20923;-13
2022/03/19 14:05:02;;;;;;;1.90;0.50;;;;;;;;;;5133515;27;20682;-13
2022/03/19 14:07:29;;;;;;;2.00;0.65;;;;;;;;;;5111571;28;20227;-13
2022/03/19 14:09:56;;;;;;;1.80;0.60;;;;;;;;;;5112761;28;20224;-13
2022/03/19 14:12:27;;;;;;;1.33;0.45;;;;;;;;;;5112650;28;20226;-13
2022/03/19 14:14:54;;;;;;;1.58;0.40;;;;;;;;;;5112532;28;20231;-13
2022/03/19 14:17:21;;;;;;;1.13;0.50;;;;;;;;;;5120686;27;20220;-13
2022/03/19 14:19:48;;;;;;;2.15;0.60;;;;;;;;;;5112207;28;20228;-13
2022/03/19 14:22:16;;;;;;;1.15;0.60;;;;;;;;;;5112050;28;20262;-13
2022/03/19 14:24:45;;;;;;;0.95;0.40;;;;;;;;;;5112017;27;20228;-13
2022/03/19 14:27:11;;;;;;;1.65;0.50;;;;;;;;;;5111431;27;20224;-13
2022/03/19 14:29:40;;;;;;;4.18;0.50;;;;;;;;;;5092077;28;20220;-13
2022/03/19 14:32:07;;;;;;;0.73;0.50;;;;;;;;;;5126322;27;20223;-13
2022/03/19 14:34:36;;;;;;;2.80;0.70;;;;;;;;;;5133014;27;20250;-13
2022/03/19 14:37:03;;;;;;;1.95;0.70;;;;;;;;;;5132934;27;20337;-13
2022/03/19 14:39:30;;;;;;;1.25;0.40;;;;;;;;;;5119565;27;20224;-12
2022/03/19 14:41:59;;;;;;;1.65;0.40;;;;;;;;;;5112184;28;20220;-13
2022/03/19 14:44:26;;;;;;;2.08;0.60;;;;;;;;;;5112370;27;20223;-13
2022/03/19 14:46:53;;;;;;;2.22;0.60;;;;;;;;;;5127683;27;20223;-13
2022/03/19 14:49:20;;;;;;;1.40;0.50;;;;;;;;;;5112526;27;20232;-13
2022/03/19 14:51:47;;;;;;;1.70;0.82;;;;;;;;;;5111921;27;20224;-13
2022/03/19 14:54:14;;;;;;;2.78;0.70;;;;;;;;;;5114674;28;20240;-13
2022/03/19 14:56:43;;;;;;;1.10;0.50;;;;;;;;;;5115653;28;20222;-13
2022/03/19 14:59:10;;;;;;;1.00;0.40;;;;;;;;;;5115692;27;20219;-13
2022/03/19 15:01:38;;;;;;;1.85;0.60;;;;;;;;;;5115049;27;20228;-13